Time;durP1;ratioP1;P1;durP2;ratioP2;P2;SDS_P1;SDS_P2;PMS_P1;PMS_P2;Temp;Humidity;BMP_temperature;BMP_pressure;BME280_temperature;BME280_humidity;BME280_pressure;Samples;Min_cycle;Max_cycle;Signal;HPM_P1;HPM_P2
2022/11/18 00:02:11;;;;;;;8.57;3.53;;;8.10;99.90;;;;;;4938791;29;20042;-83
2022/11/18 00:04:36;;;;;;;8.98;3.83;;;8.10;99.90;;;;;;4919281;29;20508;-83
2022/11/18 00:07:02;;;;;;;9.10;3.97;;;8.90;99.90;;;;;;4929296;29;20035;-83
2022/11/18 00:09:28;;;;;;;11.00;3.75;;;8.10;99.90;;;;;;4941271;29;20055;-82
2022/11/18 00:14:37;;;;;;;7.82;4.38;;;8.10;99.90;;;;;;4943213;29;20051;-83
2022/11/18 00:17:04;;;;;;;11.13;4.28;;;8.00;99.90;;;;;;4941124;29;20114;-83
2022/11/18 00:19:34;;;;;;;8.00;4.10;;;8.20;99.90;;;;;;4958175;29;20055;-83
2022/11/18 00:22:00;;;;;;;7.47;4.50;;;8.00;99.90;;;;;;4956658;29;20098;-83
2022/11/18 00:24:27;;;;;;;6.35;4.28;;;8.10;99.90;;;;;;4909403;29;20480;-83
2022/11/18 00:26:53;;;;;;;9.23;4.13;;;8.00;99.90;;;;;;4924781;29;20075;-83
2022/11/18 00:29:19;;;;;;;10.32;4.90;;;8.00;99.90;;;;;;4940748;29;20081;-83
2022/11/18 00:31:45;;;;;;;10.27;4.85;;;8.00;99.90;;;;;;4940703;29;20081;-83
2022/11/18 00:34:13;;;;;;;10.23;4.53;;;8.00;99.90;;;;;;4941244;29;20063;-83
2022/11/18 00:36:40;;;;;;;8.85;4.20;;;7.90;99.90;;;;;;4941016;29;20087;-83
2022/11/18 00:39:05;;;;;;;9.45;4.75;;;7.90;99.90;;;;;;4941697;29;20141;-83
2022/11/18 00:44:15;;;;;;;8.60;4.63;;;7.90;99.90;;;;;;4943017;29;20055;-82
2022/11/18 00:46:41;;;;;;;9.00;4.80;;;8.00;99.90;;;;;;4924719;29;20051;-83
2022/11/18 00:49:08;;;;;;;10.88;5.35;;;7.90;99.90;;;;;;4926038;29;20059;-83
2022/11/18 00:51:34;;;;;;;12.95;5.40;;;7.90;99.90;;;;;;4953631;29;20067;-83
2022/11/18 00:53:59;;;;;;;10.43;5.47;;;7.80;99.90;;;;;;4938473;29;20071;-83
2022/11/18 00:56:25;;;;;;;8.50;4.70;;;7.80;99.90;;;;;;4941249;29;20035;-83
2022/11/18 00:58:50;;;;;;;9.50;4.50;;;8.60;99.90;;;;;;4924655;29;20127;-83
2022/11/18 01:01:16;;;;;;;7.80;5.13;;;7.80;99.90;;;;;;4924958;29;20046;-83
2022/11/18 01:03:42;;;;;;;10.00;5.03;;;7.90;99.90;;;;;;4957973;29;20043;-82
2022/11/18 01:06:08;;;;;;;10.75;5.55;;;7.80;99.90;;;;;;4944097;29;20237;-83
2022/11/18 01:08:34;;;;;;;11.48;5.70;;;7.80;99.90;;;;;;4944491;29;20055;-83
2022/11/18 01:13:18;;;;;;;10.25;5.32;;;7.80;99.90;;;;;;4924734;29;20139;-83
2022/11/18 01:13:49;;;;;;;10.17;5.57;;;7.90;99.90;;;;;;4955956;29;20051;-83
2022/11/18 01:16:18;;;;;;;9.43;5.70;;;8.50;99.90;;;;;;4924293;29;20271;-83
2022/11/18 01:18:44;;;;;;;8.50;5.68;;;7.90;99.90;;;;;;4957277;29;20039;-83
2022/11/18 01:21:09;;;;;;;8.23;5.72;;;8.20;99.90;;;;;;4939683;29;20102;-83
2022/11/18 01:23:35;;;;;;;14.27;6.10;;;7.90;99.90;;;;;;4939575;29;20074;-83
2022/11/18 01:26:05;;;;;;;13.98;5.85;;;7.90;99.90;;;;;;4924428;29;20079;-83
2022/11/18 01:28:30;;;;;;;11.18;6.38;;;7.90;99.90;;;;;;4955612;29;20039;-83
2022/11/18 01:31:07;;;;;;;9.10;6.18;;;7.80;99.90;;;;;;4923893;29;20128;-83
2022/11/18 01:33:33;;;;;;;10.82;6.03;;;7.80;99.90;;;;;;4939558;29;20415;-83
2022/11/18 01:35:58;;;;;;;13.55;6.93;;;7.80;99.90;;;;;;4923855;29;20130;-83
2022/11/18 01:38:24;;;;;;;15.75;7.45;;;7.90;99.90;;;;;;4938227;29;20043;-83
2022/11/18 01:40:50;;;;;;;14.27;7.55;;;7.90;99.90;;;;;;4955223;29;20122;-83
2022/11/18 01:43:18;;;;;;;10.57;7.20;;;7.80;99.90;;;;;;4939218;29;20130;-83
2022/11/18 01:45:47;;;;;;;10.85;7.55;;;7.80;99.90;;;;;;4939665;29;20094;-83
2022/11/18 01:48:19;;;;;;;15.00;7.50;;;7.80;99.90;;;;;;4939669;29;20384;-83
2022/11/18 01:50:56;;;;;;;11.35;8.10;;;8.80;99.90;;;;;;4955575;29;20047;-83
2022/11/18 01:53:27;;;;;;;14.57;8.23;;;7.70;99.90;;;;;;4953798;29;20039;-83
2022/11/18 01:55:56;;;;;;;14.07;8.35;;;7.70;99.90;;;;;;4946125;29;20115;-83
2022/11/18 01:58:31;;;;;;;15.90;8.07;;;7.70;99.90;;;;;;4938867;29;20128;-83
2022/11/18 02:00:58;;;;;;;12.15;8.85;;;8.10;99.90;;;;;;4955296;29;20106;-83
2022/11/18 02:03:25;;;;;;;14.32;9.00;;;7.60;99.90;;;;;;4922772;29;20078;-83
2022/11/18 02:05:53;;;;;;;13.70;8.77;;;7.60;99.90;;;;;;4938214;29;20046;-83
2022/11/18 02:08:21;;;;;;;14.98;10.25;;;8.00;99.90;;;;;;4936612;29;20060;-83
2022/11/18 02:10:46;;;;;;;17.30;10.45;;;7.60;99.90;;;;;;4904572;29;20055;-83
2022/11/18 02:13:13;;;;;;;13.80;10.45;;;7.60;99.90;;;;;;4935396;29;20408;-83
2022/11/18 02:16:16;;;;;;;17.23;11.38;;;7.60;99.90;;;;;;4904175;29;20084;-83
2022/11/18 02:18:53;;;;;;;17.27;11.98;;;7.60;99.90;;;;;;4917022;29;20047;-83
2022/11/18 02:21:34;;;;;;;20.33;12.85;;;7.60;99.90;;;;;;4928260;29;20040;-83
2022/11/18 02:24:21;;;;;;;16.02;12.27;;;7.80;99.90;;;;;;4935536;29;20039;-83
2022/11/18 02:27:04;;;;;;;15.20;12.02;;;7.60;99.90;;;;;;4920011;29;20047;-83
2022/11/18 02:29:42;;;;;;;20.23;12.73;;;7.60;99.90;;;;;;4935103;29;20047;-83
2022/11/18 02:32:11;;;;;;;19.55;14.18;;;7.60;99.90;;;;;;4924032;29;20102;-83
2022/11/18 02:34:56;;;;;;;24.33;15.23;;;7.60;99.90;;;;;;4954306;29;20040;-83
2022/11/18 02:37:38;;;;;;;20.02;14.35;;;7.60;99.90;;;;;;4954206;29;20043;-83
2022/11/18 02:40:09;;;;;;;20.48;16.65;;;7.60;99.90;;;;;;4954386;29;20077;-83
2022/11/18 02:42:38;;;;;;;22.05;16.95;;;7.50;99.90;;;;;;4938592;29;20043;-83
2022/11/18 02:45:11;;;;;;;23.77;17.38;;;7.60;99.90;;;;;;4938506;29;20043;-84
2022/11/18 02:47:39;;;;;;;22.20;17.15;;;7.50;99.90;;;;;;4937920;29;20119;-83
2022/11/18 02:50:09;;;;;;;23.80;18.25;;;8.40;99.90;;;;;;4938275;29;20039;-83
2022/11/18 02:52:38;;;;;;;28.02;18.65;;;7.50;99.90;;;;;;4954599;29;20496;-83
2022/11/18 02:55:07;;;;;;;27.58;18.40;;;7.60;99.90;;;;;;4954453;29;20043;-83
2022/11/18 02:57:35;;;;;;;26.52;17.77;;;7.50;99.90;;;;;;4938126;29;20073;-83
2022/11/18 03:00:01;;;;;;;25.45;19.48;;;7.60;99.90;;;;;;4938119;29;20047;-83
2022/11/18 03:02:26;;;;;;;26.08;19.40;;;7.60;99.90;;;;;;4953881;29;20075;-83
2022/11/18 03:04:56;;;;;;;29.67;19.50;;;7.60;99.90;;;;;;4935337;29;20167;-83
2022/11/18 03:07:29;;;;;;;30.38;21.38;;;7.60;99.90;;;;;;4903822;29;20046;-83
2022/11/18 03:09:58;;;;;;;29.17;20.52;;;7.60;99.90;;;;;;4919156;29;20060;-83
2022/11/18 03:12:42;;;;;;;36.47;21.70;;;7.70;99.90;;;;;;4919407;29;20477;-83
2022/11/18 03:15:29;;;;;;;32.45;22.40;;;7.70;99.90;;;;;;4935599;29;20087;-83
2022/11/18 03:18:26;;;;;;;35.38;22.23;;;7.70;99.90;;;;;;4935110;29;20127;-83
2022/11/18 03:21:07;;;;;;;35.13;23.08;;;7.70;99.90;;;;;;4960391;29;20035;-82
2022/11/18 03:23:44;;;;;;;34.35;22.05;;;7.70;99.90;;;;;;4939132;29;20043;-83
2022/11/18 03:26:23;;;;;;;31.77;21.20;;;7.70;99.90;;;;;;4938375;29;20043;-83
2022/11/18 03:28:52;;;;;;;37.80;22.42;;;7.80;99.90;;;;;;4938363;29;20121;-83
2022/11/18 03:31:25;;;;;;;36.00;23.92;;;8.00;99.90;;;;;;4937927;29;20515;-83
2022/11/18 03:34:02;;;;;;;36.85;22.73;;;7.80;99.90;;;;;;4934653;29;20051;-83
2022/11/18 03:36:33;;;;;;;33.92;22.38;;;7.90;99.90;;;;;;4919756;29;20459;-83
2022/11/18 03:39:02;;;;;;;37.28;22.67;;;8.40;99.90;;;;;;4935334;29;20127;-83
2022/11/18 03:41:34;;;;;;;34.75;23.40;;;7.90;99.90;;;;;;4922171;29;20543;-83
2022/11/18 03:44:06;;;;;;;40.00;24.40;;;7.90;99.90;;;;;;4922640;29;20109;-83
2022/11/18 03:46:45;;;;;;;34.90;22.20;;;7.90;99.90;;;;;;4949237;29;20399;-83
2022/11/18 03:49:18;;;;;;;37.75;22.95;;;7.90;99.90;;;;;;4942028;29;20043;-83
2022/11/18 03:51:50;;;;;;;32.95;22.02;;;7.90;99.90;;;;;;4957458;29;20050;-83
2022/11/18 03:54:23;;;;;;;35.83;22.17;;;8.00;99.90;;;;;;4957600;29;20082;-83
2022/11/18 03:56:56;;;;;;;33.53;23.00;;;8.00;99.90;;;;;;4957400;29;20047;-83
2022/11/18 03:59:36;;;;;;;33.00;22.88;;;8.00;99.90;;;;;;4942104;29;20391;-83
2022/11/18 04:02:11;;;;;;;35.38;23.70;;;7.90;99.90;;;;;;4940183;29;20090;-83
2022/11/18 04:04:37;;;;;;;30.67;21.67;;;7.90;99.90;;;;;;4943332;29;20130;-83
2022/11/18 04:07:23;;;;;;;34.58;23.70;;;8.00;99.90;;;;;;4937856;29;20127;-83
2022/11/18 04:10:05;;;;;;;31.50;22.67;;;8.00;99.90;;;;;;4925355;29;20047;-83
2022/11/18 04:12:37;;;;;;;32.95;20.67;;;8.00;99.90;;;;;;4940883;29;20510;-84
2022/11/18 04:15:04;;;;;;;31.05;20.35;;;8.00;99.90;;;;;;4957123;29;20129;-83
2022/11/18 04:17:29;;;;;;;31.08;22.45;;;8.00;99.90;;;;;;4941064;29;20049;-83
2022/11/18 04:19:55;;;;;;;33.42;23.35;;;7.90;99.90;;;;;;4940868;29;20038;-83
2022/11/18 04:22:21;;;;;;;34.08;21.52;;;8.00;99.90;;;;;;4940506;29;20091;-83
2022/11/18 04:24:46;;;;;;;33.00;25.00;;;8.00;99.90;;;;;;4924560;29;20054;-83
2022/11/18 04:27:12;;;;;;;34.30;23.65;;;8.00;99.90;;;;;;4940439;29;20445;-83
2022/11/18 04:29:38;;;;;;;35.25;23.23;;;8.00;99.90;;;;;;4941056;29;20047;-83
2022/11/18 04:32:04;;;;;;;32.17;22.70;;;8.00;99.90;;;;;;4925356;29;20484;-83
2022/11/18 04:34:30;;;;;;;33.13;22.60;;;7.90;99.90;;;;;;4941307;29;20047;-83
2022/11/18 04:36:57;;;;;;;32.67;22.45;;;8.00;99.90;;;;;;4940337;29;20456;-83
2022/11/18 04:39:23;;;;;;;32.20;22.48;;;8.00;99.90;;;;;;4929383;29;20099;-83
2022/11/18 04:41:55;;;;;;;35.35;23.83;;;8.00;99.90;;;;;;4937505;29;20043;-83
2022/11/18 04:44:31;;;;;;;32.90;21.45;;;8.10;99.90;;;;;;4938390;29;20039;-83
2022/11/18 04:47:02;;;;;;;35.63;23.77;;;8.00;99.90;;;;;;4953112;29;20044;-83
2022/11/18 04:49:29;;;;;;;33.75;22.77;;;8.00;99.90;;;;;;4937694;29;20047;-83
2022/11/18 04:51:55;;;;;;;37.17;24.67;;;8.00;99.90;;;;;;4954241;28;20523;-83
2022/11/18 04:54:22;;;;;;;37.15;25.17;;;7.90;99.90;;;;;;4940518;29;20039;-83
2022/11/18 04:56:48;;;;;;;32.45;22.23;;;8.00;99.90;;;;;;4940609;29;20047;-83
2022/11/18 04:59:15;;;;;;;36.67;23.38;;;8.00;99.90;;;;;;4956312;29;20484;-83
2022/11/18 05:01:41;;;;;;;36.08;23.15;;;8.00;99.90;;;;;;4940769;29;20039;-83
2022/11/18 05:04:11;;;;;;;39.10;24.73;;;8.00;99.90;;;;;;4925362;29;20045;-84
2022/11/18 05:06:37;;;;;;;35.42;22.65;;;8.00;99.90;;;;;;4955512;29;20182;-83
2022/11/18 05:09:02;;;;;;;32.97;21.55;;;8.00;99.90;;;;;;4924154;29;20138;-83
2022/11/18 05:14:13;;;;;;;36.28;23.15;;;8.00;99.90;;;;;;4929576;29;20054;-83
2022/11/18 05:16:39;;;;;;;34.72;22.85;;;8.00;99.90;;;;;;4940366;29;20039;-83
2022/11/18 05:19:05;;;;;;;31.92;22.58;;;8.00;99.90;;;;;;4940475;29;20043;-83
2022/11/18 05:21:31;;;;;;;40.05;23.50;;;8.00;99.90;;;;;;4945948;29;20103;-82
2022/11/18 05:24:01;;;;;;;36.83;22.55;;;8.00;99.90;;;;;;4958015;29;20047;-83
2022/11/18 05:26:27;;;;;;;31.33;21.30;;;8.00;99.90;;;;;;4958378;29;20046;-84
2022/11/18 05:28:53;;;;;;;32.72;22.08;;;8.00;99.90;;;;;;4957003;29;20043;-83
2022/11/18 05:31:19;;;;;;;34.15;21.83;;;8.00;99.90;;;;;;4940948;29;20521;-83
2022/11/18 05:33:45;;;;;;;35.22;23.35;;;8.00;99.90;;;;;;4942649;29;20047;-83
2022/11/18 05:36:14;;;;;;;35.00;22.38;;;8.00;99.90;;;;;;4938961;29;20039;-83
2022/11/18 05:38:40;;;;;;;35.90;22.67;;;8.00;99.90;;;;;;4932316;29;20396;-83
2022/11/18 05:41:07;;;;;;;33.13;20.77;;;8.00;99.90;;;;;;4941655;29;20075;-83
2022/11/18 05:43:33;;;;;;;33.45;21.88;;;8.00;99.90;;;;;;4924537;29;20054;-83
2022/11/18 05:45:59;;;;;;;31.33;20.52;;;8.00;99.90;;;;;;4939879;29;20133;-83
2022/11/18 05:48:25;;;;;;;34.53;23.35;;;8.00;99.90;;;;;;4939704;29;20519;-83
2022/11/18 05:50:53;;;;;;;30.90;21.92;;;8.80;99.90;;;;;;4940327;29;20093;-84
2022/11/18 05:53:20;;;;;;;39.60;22.17;;;8.00;99.90;;;;;;4924616;29;20051;-83
2022/11/18 05:56:24;;;;;;;33.70;23.42;;;8.30;99.90;;;;;;4925002;29;20047;-83
2022/11/18 05:58:49;;;;;;;35.75;22.98;;;8.00;99.90;;;;;;4882371;29;20080;-83
2022/11/18 06:01:22;;;;;;;34.20;22.40;;;8.00;99.90;;;;;;4925631;29;20054;-84
2022/11/18 06:03:48;;;;;;;33.38;22.13;;;8.00;99.90;;;;;;4938549;29;20082;-83
2022/11/18 06:06:19;;;;;;;35.67;22.30;;;8.00;99.90;;;;;;4921805;29;20039;-83
2022/11/18 06:08:58;;;;;;;35.30;24.00;;;8.10;99.90;;;;;;4920467;29;20059;-83
2022/11/18 06:11:24;;;;;;;34.85;23.33;;;8.00;99.90;;;;;;4935818;29;20043;-83
2022/11/18 06:14:06;;;;;;;31.45;21.40;;;8.00;99.90;;;;;;4920285;29;20054;-83
2022/11/18 06:16:33;;;;;;;31.08;19.92;;;8.10;99.90;;;;;;4946537;29;20051;-83
2022/11/18 06:19:01;;;;;;;33.00;22.40;;;8.10;99.90;;;;;;4924108;29;20435;-83
2022/11/18 06:21:27;;;;;;;35.40;22.02;;;8.10;99.90;;;;;;4924756;29;20043;-80
2022/11/18 06:23:53;;;;;;;35.40;23.42;;;8.00;99.90;;;;;;4923710;29;20047;-83
2022/11/18 06:26:19;;;;;;;28.70;20.13;;;8.00;99.90;;;;;;4938760;29;20643;-83
2022/11/18 06:28:47;;;;;;;34.53;22.23;;;8.00;99.90;;;;;;4954533;29;20133;-83
2022/11/18 06:31:13;;;;;;;29.95;20.67;;;8.00;99.90;;;;;;4954594;28;20047;-83
2022/11/18 06:33:38;;;;;;;34.33;22.92;;;8.00;99.90;;;;;;4922132;29;20055;-83
2022/11/18 06:36:04;;;;;;;33.33;21.60;;;8.00;99.90;;;;;;4925053;29;20122;-82
2022/11/18 06:38:30;;;;;;;35.38;23.50;;;8.00;99.90;;;;;;4942146;29;20046;-83
2022/11/18 06:41:00;;;;;;;36.60;24.05;;;8.00;99.90;;;;;;4941048;29;20039;-82
2022/11/18 06:43:38;;;;;;;32.05;22.05;;;8.60;99.90;;;;;;4942754;29;20044;-82
2022/11/18 06:48:51;;;;;;;31.60;22.02;;;8.00;99.90;;;;;;4954052;28;20535;-82
2022/11/18 06:51:17;;;;;;;35.72;23.17;;;8.00;99.90;;;;;;4938538;29;20122;-82
2022/11/18 06:53:43;;;;;;;31.38;21.30;;;8.00;99.90;;;;;;4938336;29;20175;-82
2022/11/18 06:56:11;;;;;;;37.10;22.65;;;8.00;99.90;;;;;;4954585;29;20046;-81
2022/11/18 06:58:37;;;;;;;31.92;21.15;;;8.70;99.90;;;;;;4937424;29;20036;-83
2022/11/18 07:01:30;;;;;;;35.70;23.05;;;8.00;99.90;;;;;;4934702;29;20036;-82
2022/11/18 07:03:59;;;;;;;28.85;20.50;;;8.90;99.90;;;;;;4931664;29;20071;-82
2022/11/18 07:06:31;;;;;;;34.25;22.35;;;8.00;99.90;;;;;;4919074;29;20044;-82
2022/11/18 07:08:59;;;;;;;28.75;18.85;;;8.80;99.90;;;;;;4950542;29;20158;-82
2022/11/18 07:11:25;;;;;;;33.15;20.95;;;8.00;99.90;;;;;;4903357;29;20472;-82
2022/11/18 07:13:51;;;;;;;29.00;19.40;;;8.00;99.90;;;;;;4904272;29;20103;-82
2022/11/18 07:16:20;;;;;;;31.42;22.25;;;8.00;99.90;;;;;;4967045;28;20046;-82
2022/11/18 07:18:47;;;;;;;30.92;20.55;;;8.00;99.90;;;;;;4942089;29;20551;-83
2022/11/18 07:21:15;;;;;;;32.38;20.33;;;8.00;99.90;;;;;;4925808;29;20047;-82
2022/11/18 07:23:41;;;;;;;28.75;19.25;;;8.00;99.90;;;;;;4957831;29;20035;-82
2022/11/18 07:26:07;;;;;;;31.17;20.73;;;8.00;99.90;;;;;;4942783;29;20043;-82
2022/11/18 07:28:33;;;;;;;29.98;19.90;;;8.00;99.90;;;;;;4926763;29;20057;-84
2022/11/18 07:31:04;;;;;;;45.10;20.63;;;8.00;99.90;;;;;;4940942;29;20080;-82
2022/11/18 07:33:31;;;;;;;33.10;20.13;;;8.00;99.90;;;;;;4941159;29;20126;-83
2022/11/18 07:36:05;;;;;;;28.98;18.92;;;8.00;99.90;;;;;;4939559;29;20040;-82
2022/11/18 07:38:31;;;;;;;34.53;20.75;;;8.40;99.90;;;;;;4956476;29;20051;-82
2022/11/18 07:41:08;;;;;;;33.25;21.52;;;8.00;99.90;;;;;;4926195;29;20040;-82
2022/11/18 07:43:35;;;;;;;31.55;20.98;;;8.00;99.90;;;;;;4923387;29;20043;-82
2022/11/18 07:46:28;;;;;;;35.15;19.02;;;8.00;99.90;;;;;;4934873;29;20119;-82
2022/11/18 07:48:57;;;;;;;29.38;18.90;;;8.00;99.90;;;;;;4955408;29;20062;-82
2022/11/18 07:51:25;;;;;;;28.63;18.67;;;8.00;99.90;;;;;;4958201;29;20082;-82
2022/11/18 07:53:51;;;;;;;32.60;20.27;;;8.00;99.90;;;;;;4957774;29;20492;-82
2022/11/18 07:56:18;;;;;;;30.88;20.45;;;8.00;99.90;;;;;;4958578;29;20039;-82
2022/11/18 07:58:44;;;;;;;33.70;19.88;;;8.00;99.90;;;;;;4925097;29;20042;-82
2022/11/18 08:01:15;;;;;;;24.92;18.50;;;7.90;99.90;;;;;;4941804;29;20031;-82
2022/11/18 08:03:42;;;;;;;29.02;19.23;;;8.00;99.90;;;;;;4958177;29;20050;-82
2022/11/18 08:06:09;;;;;;;25.65;17.65;;;8.00;99.90;;;;;;4957791;29;20047;-82
2022/11/18 08:08:36;;;;;;;30.35;19.40;;;8.00;99.90;;;;;;4940935;29;20524;-82
2022/11/18 08:11:05;;;;;;;29.13;17.58;;;8.00;99.90;;;;;;4942108;29;20082;-81
2022/11/18 08:13:31;;;;;;;34.40;17.80;;;8.00;99.90;;;;;;4948064;29;20099;-82
2022/11/18 08:15:57;;;;;;;29.45;18.23;;;8.00;99.90;;;;;;4938863;29;20058;-82
2022/11/18 08:18:23;;;;;;;28.25;17.85;;;8.00;99.90;;;;;;4938688;29;20078;-82
2022/11/18 08:20:48;;;;;;;24.45;16.48;;;8.00;99.90;;;;;;4957050;29;20043;-82
2022/11/18 08:23:15;;;;;;;28.98;16.08;;;8.00;99.90;;;;;;4957637;29;20035;-82
2022/11/18 08:25:43;;;;;;;24.85;13.95;;;8.00;99.90;;;;;;4941049;28;20043;-82
2022/11/18 08:28:09;;;;;;;22.35;13.82;;;8.00;99.90;;;;;;4940530;29;20500;-82
2022/11/18 08:30:37;;;;;;;28.17;14.90;;;8.30;99.90;;;;;;4941260;28;20047;-82
2022/11/18 08:33:03;;;;;;;28.65;17.02;;;8.00;99.90;;;;;;4957471;29;20043;-82
2022/11/18 08:35:30;;;;;;;22.25;15.90;;;8.90;99.90;;;;;;4925808;29;20042;-82
2022/11/18 08:37:56;;;;;;;22.77;15.05;;;8.20;99.90;;;;;;4956997;29;20444;-82
2022/11/18 08:40:21;;;;;;;21.20;14.77;;;8.60;99.90;;;;;;4940987;29;20075;-82
2022/11/18 08:42:47;;;;;;;21.58;14.95;;;8.00;99.90;;;;;;4924917;29;20090;-82
2022/11/18 08:45:13;;;;;;;25.00;15.80;;;8.00;99.90;;;;;;4940715;29;20039;-82
2022/11/18 08:47:39;;;;;;;22.08;15.65;;;8.00;99.90;;;;;;4956077;29;20488;-82
2022/11/18 08:50:07;;;;;;;20.88;15.13;;;8.00;99.90;;;;;;4941080;29;20046;-82
2022/11/18 08:52:33;;;;;;;23.20;15.55;;;8.00;99.90;;;;;;4957392;29;20118;-83
2022/11/18 08:54:59;;;;;;;22.90;14.82;;;8.00;99.90;;;;;;4940965;29;20075;-82
2022/11/18 08:57:28;;;;;;;20.35;13.63;;;8.00;99.90;;;;;;4957403;29;20039;-82
2022/11/18 08:59:54;;;;;;;21.42;15.23;;;8.00;99.90;;;;;;4971552;28;20043;-82
2022/11/18 09:02:22;;;;;;;20.13;14.50;;;8.00;99.90;;;;;;4940692;29;20043;-82
2022/11/18 09:04:49;;;;;;;21.55;14.13;;;8.00;99.90;;;;;;4940257;29;20408;-82
2022/11/18 09:07:19;;;;;;;17.13;11.82;;;8.10;99.90;;;;;;4956070;29;20099;-82
2022/11/18 09:09:44;;;;;;;19.98;13.38;;;8.00;99.90;;;;;;4946510;29;20070;-85
2022/11/18 09:12:13;;;;;;;19.67;13.07;;;8.00;99.90;;;;;;4891671;29;20043;-82
2022/11/18 09:14:43;;;;;;;27.60;14.70;;;8.00;99.90;;;;;;4936652;29;20044;-83
2022/11/18 09:17:10;;;;;;;32.40;13.60;;;8.20;99.90;;;;;;4931807;29;20047;-82
2022/11/18 09:19:36;;;;;;;23.42;13.55;;;8.00;99.90;;;;;;4958898;29;20065;-83
2022/11/18 09:22:03;;;;;;;24.77;14.50;;;8.00;99.90;;;;;;4947224;29;20109;-81
2022/11/18 09:24:28;;;;;;;21.70;12.80;;;8.00;99.90;;;;;;4906094;29;20511;-84
2022/11/18 09:26:54;;;;;;;17.90;12.40;;;8.00;99.90;;;;;;4892165;29;20094;-84
2022/11/18 09:29:24;;;;;;;19.17;13.18;;;8.00;99.90;;;;;;4941186;29;20498;-84
2022/11/18 09:31:50;;;;;;;23.48;14.00;;;8.80;99.90;;;;;;4940434;29;20047;-84
2022/11/18 09:34:15;;;;;;;19.05;13.25;;;8.10;99.90;;;;;;4909539;29;20122;-85
2022/11/18 09:36:41;;;;;;;19.95;12.90;;;8.00;99.90;;;;;;4940536;29;20039;-84
2022/11/18 09:39:07;;;;;;;20.45;13.38;;;8.50;99.90;;;;;;4959043;29;20039;-83
2022/11/18 09:42:06;;;;;;;18.80;13.57;;;8.00;99.90;;;;;;4922978;29;20036;-84
2022/11/18 09:44:54;;;;;;;23.20;12.10;;;8.00;99.90;;;;;;4933338;29;20105;-83
2022/11/18 09:47:35;;;;;;;17.70;11.07;;;8.00;99.90;;;;;;4938930;29;20567;-84
2022/11/18 09:50:20;;;;;;;15.35;10.50;;;8.00;99.90;;;;;;4936114;29;20079;-84
2022/11/18 09:53:04;;;;;;;19.70;12.68;;;8.00;99.90;;;;;;4931164;29;20086;-84
2022/11/18 09:55:33;;;;;;;19.35;11.75;;;8.00;99.90;;;;;;4958449;29;20035;-84
2022/11/18 09:57:59;;;;;;;20.17;13.05;;;8.00;99.90;;;;;;4962918;29;20070;-83
2022/11/18 10:00:27;;;;;;;16.58;10.70;;;8.00;99.90;;;;;;4930247;29;20113;-84
2022/11/18 10:02:56;;;;;;;18.33;12.00;;;8.10;99.90;;;;;;4960564;29;20046;-84
2022/11/18 10:05:31;;;;;;;15.70;11.63;;;7.60;99.90;;;;;;4939995;29;20132;-84
2022/11/18 10:08:04;;;;;;;18.00;11.93;;;8.10;99.90;;;;;;4930717;29;20559;-84
2022/11/18 10:11:06;;;;;;;16.52;11.35;;;8.10;99.90;;;;;;4938715;29;20051;-84
2022/11/18 10:13:42;;;;;;;17.77;11.07;;;8.20;99.90;;;;;;4933409;29;20055;-84
2022/11/18 10:16:28;;;;;;;16.73;9.55;;;8.20;99.90;;;;;;4934749;29;20185;-84
2022/11/18 10:19:01;;;;;;;16.88;10.85;;;8.20;99.90;;;;;;4953391;29;20046;-84
2022/11/18 10:21:33;;;;;;;16.40;12.02;;;8.20;99.90;;;;;;4938567;29;20046;-83
2022/11/18 10:24:07;;;;;;;16.05;10.23;;;8.10;99.90;;;;;;4954699;29;20126;-84
2022/11/18 10:26:35;;;;;;;17.63;10.55;;;8.10;99.90;;;;;;4939865;29;20125;-84
2022/11/18 10:29:01;;;;;;;15.10;11.60;;;8.10;99.90;;;;;;4910393;29;20048;-84
2022/11/18 10:31:27;;;;;;;15.27;11.27;;;8.50;99.90;;;;;;4933991;29;20046;-83
2022/11/18 10:34:00;;;;;;;17.02;11.55;;;8.10;99.90;;;;;;4936781;29;20047;-83
2022/11/18 10:36:30;;;;;;;16.88;10.98;;;8.10;99.90;;;;;;4955800;29;20054;-84
2022/11/18 10:39:12;;;;;;;17.90;11.95;;;8.10;99.90;;;;;;4939239;29;20043;-84
2022/11/18 10:41:43;;;;;;;15.68;11.15;;;8.10;99.90;;;;;;4938184;29;20292;-84
2022/11/18 10:44:34;;;;;;;17.40;11.05;;;9.10;99.90;;;;;;4938774;29;20105;-83
2022/11/18 10:47:29;;;;;;;20.02;13.93;;;8.10;99.90;;;;;;4952721;29;20436;-84
2022/11/18 10:49:57;;;;;;;17.55;12.85;;;8.10;99.90;;;;;;4953024;29;20046;-84
2022/11/18 10:52:23;;;;;;;23.83;14.10;;;8.10;99.90;;;;;;4954112;29;20038;-84
2022/11/18 10:55:19;;;;;;;21.17;14.35;;;8.20;99.90;;;;;;4921710;29;20134;-84
2022/11/18 10:57:46;;;;;;;18.13;11.33;;;8.20;99.90;;;;;;4933908;29;20396;-83
2022/11/18 11:00:51;;;;;;;21.25;13.85;;;8.10;99.90;;;;;;4920113;29;20620;-82
2022/11/18 11:03:34;;;;;;;23.83;15.32;;;8.10;99.90;;;;;;4931659;29;20057;-83
2022/11/18 11:06:14;;;;;;;23.95;14.52;;;8.20;99.90;;;;;;4938293;29;20134;-83
2022/11/18 11:09:13;;;;;;;23.63;14.80;;;8.20;99.90;;;;;;4922599;29;20094;-83
2022/11/18 11:11:55;;;;;;;22.75;15.32;;;8.20;99.90;;;;;;4918738;29;20094;-82
2022/11/18 11:14:51;;;;;;;22.65;15.40;;;8.20;99.90;;;;;;4952621;29;20043;-83
2022/11/18 11:17:22;;;;;;;25.13;15.95;;;8.20;99.90;;;;;;4940844;28;20094;-83
2022/11/18 11:19:51;;;;;;;23.25;16.13;;;8.20;99.90;;;;;;4953054;29;20488;-83
2022/11/18 11:22:17;;;;;;;25.20;15.52;;;8.20;99.90;;;;;;4938743;29;20050;-83
2022/11/18 11:24:45;;;;;;;23.75;15.40;;;8.30;99.90;;;;;;4938418;29;20039;-82
2022/11/18 11:27:38;;;;;;;24.80;14.65;;;8.30;99.90;;;;;;4937983;29;20047;-82
2022/11/18 11:30:21;;;;;;;22.08;14.70;;;8.30;99.90;;;;;;4937409;29;20395;-83
2022/11/18 11:32:55;;;;;;;22.45;14.32;;;8.30;99.90;;;;;;4937332;29;20130;-82
2022/11/18 11:35:26;;;;;;;19.60;13.68;;;8.30;99.90;;;;;;4952985;29;20620;-81
2022/11/18 11:37:57;;;;;;;21.08;14.52;;;8.70;99.90;;;;;;4955208;28;20122;-82
2022/11/18 11:40:28;;;;;;;20.08;12.30;;;8.30;99.90;;;;;;4941456;29;20098;-82
2022/11/18 11:43:25;;;;;;;21.63;14.90;;;8.30;99.90;;;;;;4929181;28;20039;-82
2022/11/18 11:45:57;;;;;;;21.15;14.43;;;8.30;99.90;;;;;;4923400;29;20044;-82
2022/11/18 11:48:30;;;;;;;20.02;13.93;;;8.20;99.90;;;;;;4949583;29;20082;-82
2022/11/18 11:51:02;;;;;;;20.88;15.23;;;8.20;99.90;;;;;;4948314;29;20039;-82
2022/11/18 11:54:14;;;;;;;17.50;12.63;;;8.20;99.90;;;;;;4936472;29;20047;-82
2022/11/18 11:56:59;;;;;;;24.60;15.05;;;8.20;99.90;;;;;;4918227;29;20555;-81
2022/11/18 11:59:58;;;;;;;19.73;14.07;;;8.30;99.90;;;;;;4936352;28;20387;-80
2022/11/18 12:02:43;;;;;;;21.73;15.30;;;8.20;99.90;;;;;;4964858;28;20078;-81
2022/11/18 12:05:32;;;;;;;22.02;13.95;;;8.20;99.90;;;;;;4956838;29;20380;-81
2022/11/18 12:08:19;;;;;;;22.95;15.20;;;8.20;99.90;;;;;;4950027;29;20051;-80
2022/11/18 12:11:13;;;;;;;21.20;14.15;;;8.10;99.90;;;;;;4955739;29;20504;-81
2022/11/18 12:14:05;;;;;;;21.25;15.48;;;8.10;99.90;;;;;;4937110;29;20047;-81
2022/11/18 12:16:46;;;;;;;22.13;16.08;;;8.10;99.90;;;;;;4955097;28;20547;-82
2022/11/18 12:19:15;;;;;;;23.17;16.27;;;8.10;99.90;;;;;;4952818;28;20562;-82
2022/11/18 12:21:44;;;;;;;22.50;15.93;;;8.10;99.90;;;;;;4924094;29;20043;-81
2022/11/18 12:24:16;;;;;;;20.23;13.80;;;8.00;99.90;;;;;;4937845;29;20189;-82
2022/11/18 12:26:45;;;;;;;21.23;15.27;;;8.00;99.90;;;;;;4938226;29;20043;-82
2022/11/18 12:29:17;;;;;;;24.90;15.77;;;8.00;99.90;;;;;;4934077;29;20662;-82
2022/11/18 12:31:45;;;;;;;21.65;14.18;;;7.90;99.90;;;;;;4952241;28;20039;-82
2022/11/18 12:34:33;;;;;;;19.63;13.73;;;7.80;99.90;;;;;;4940131;29;20127;-82
2022/11/18 12:37:22;;;;;;;20.98;13.80;;;7.90;99.90;;;;;;4937136;29;20079;-82
2022/11/18 12:39:58;;;;;;;18.73;12.93;;;7.90;99.90;;;;;;4918350;29;20058;-82
2022/11/18 12:45:40;;;;;;;15.57;11.27;;;7.90;99.90;;;;;;4950709;28;20460;-82
2022/11/18 12:48:26;;;;;;;20.13;12.73;;;7.90;99.90;;;;;;4940376;29;20047;-82
2022/11/18 12:51:00;;;;;;;16.98;11.82;;;7.80;99.90;;;;;;4956337;29;20062;-82
2022/11/18 12:53:41;;;;;;;15.00;11.55;;;7.80;99.90;;;;;;4956851;29;21085;-82
2022/11/18 12:56:16;;;;;;;17.42;11.48;;;7.80;99.90;;;;;;4939767;29;20145;-82
2022/11/18 12:58:49;;;;;;;14.65;10.77;;;7.70;99.90;;;;;;4939222;29;20543;-82
2022/11/18 13:01:17;;;;;;;15.48;10.45;;;7.70;99.90;;;;;;4954305;29;20126;-82
2022/11/18 13:03:43;;;;;;;15.10;10.50;;;7.70;99.90;;;;;;4940149;29;20066;-82
2022/11/18 13:06:25;;;;;;;14.60;10.20;;;7.60;99.90;;;;;;4939390;29;20054;-82
2022/11/18 13:09:00;;;;;;;14.73;10.13;;;7.60;99.90;;;;;;4939859;29;20055;-82
2022/11/18 13:11:43;;;;;;;15.75;11.00;;;7.60;99.90;;;;;;4939749;29;20061;-82
2022/11/18 13:19:56;;;;;;;13.32;9.02;;;7.50;99.90;;;;;;4955365;28;20065;-82
2022/11/18 13:25:22;;;;;;;14.90;9.77;;;7.50;99.90;;;;;;4952258;28;20047;-82